createdAt,value
2023-01-17T00:02:07.147Z,7.32
2023-01-17T00:04:52.437Z,8.18
2023-01-17T00:07:39.236Z,8.43
2023-01-17T00:10:13.106Z,8.18
2023-01-17T00:12:40.179Z,8.05
2023-01-17T00:15:07.581Z,8.07
2023-01-17T00:17:34.328Z,8.27
2023-01-17T00:20:20.240Z,8.32
2023-01-17T00:23:06.266Z,8.38
2023-01-17T00:25:52.270Z,8.23
2023-01-17T00:28:18.829Z,7.75
2023-01-17T00:30:45.941Z,8.07
2023-01-17T00:33:12.936Z,8.00
2023-01-17T00:35:39.728Z,8.00
2023-01-17T00:38:11.531Z,7.30
2023-01-17T00:40:40.633Z,8.05
2023-01-17T00:43:26.902Z,7.88
2023-01-17T00:46:12.512Z,7.97
2023-01-17T00:48:58.260Z,7.70
2023-01-17T00:51:44.390Z,8.32
2023-01-17T00:54:30.281Z,7.20
2023-01-17T00:57:16.067Z,7.55
2023-01-17T01:00:01.288Z,7.53
2023-01-17T01:02:47.129Z,6.95
2023-01-17T01:05:33.536Z,7.20
2023-01-17T01:08:19.297Z,6.57
2023-01-17T01:11:06.715Z,7.20
2023-01-17T01:13:52.602Z,7.40
2023-01-17T01:16:38.872Z,8.27
2023-01-17T01:19:24.662Z,8.23
2023-01-17T01:22:10.107Z,7.63
2023-01-17T01:24:55.565Z,8.30
2023-01-17T01:27:40.960Z,9.95
2023-01-17T01:30:26.756Z,8.40
2023-01-17T01:33:11.985Z,8.80
2023-01-17T01:35:38.536Z,8.45
2023-01-17T01:38:05.130Z,7.60
2023-01-17T01:40:31.749Z,8.50
2023-01-17T01:42:59.982Z,8.05
2023-01-17T01:45:29.694Z,8.43
2023-01-17T01:48:02.728Z,8.10
2023-01-17T01:50:31.298Z,8.25
2023-01-17T01:53:02.593Z,7.95
2023-01-17T01:55:37.884Z,8.40
2023-01-17T01:58:16.567Z,7.30
2023-01-17T02:00:43.396Z,7.50
2023-01-17T02:03:22.784Z,8.43
2023-01-17T02:05:49.754Z,7.95
2023-01-17T02:08:19.172Z,7.88
2023-01-17T02:10:46.226Z,8.35
2023-01-17T02:13:16.633Z,8.40
2023-01-17T02:15:55.302Z,7.55
2023-01-17T02:18:46.570Z,8.02
2023-01-17T02:21:31.993Z,7.28
2023-01-17T02:24:25.900Z,7.57
2023-01-17T02:27:04.381Z,7.07
2023-01-17T02:29:52.903Z,7.22
2023-01-17T02:32:34.656Z,7.90
2023-01-17T02:35:04.900Z,8.20
2023-01-17T02:37:45.845Z,7.90
2023-01-17T02:40:38.326Z,8.52
2023-01-17T02:43:11.759Z,8.10
2023-01-17T02:45:38.362Z,7.47
2023-01-17T02:48:08.213Z,8.07
2023-01-17T02:51:00.711Z,8.50
2023-01-17T02:53:45.966Z,7.38
2023-01-17T02:56:53.871Z,8.07
2023-01-17T02:59:38.508Z,10.13
2023-01-17T03:02:15.662Z,7.90
2023-01-17T03:04:50.066Z,10.48
2023-01-17T03:07:21.915Z,10.07
2023-01-17T03:09:53.565Z,10.55
2023-01-17T03:12:21.103Z,10.38
2023-01-17T03:14:47.798Z,10.10
2023-01-17T03:17:14.461Z,10.27
2023-01-17T03:19:41.107Z,9.75
2023-01-17T03:22:07.754Z,8.60
2023-01-17T03:24:34.330Z,9.65
2023-01-17T03:27:00.924Z,9.75
2023-01-17T03:29:27.858Z,8.15
2023-01-17T03:31:54.502Z,8.85
2023-01-17T03:34:21.140Z,9.13
2023-01-17T03:36:47.708Z,9.48
2023-01-17T03:39:14.449Z,9.13
2023-01-17T03:41:40.983Z,9.23
2023-01-17T03:44:07.562Z,9.18
2023-01-17T03:46:34.366Z,8.93
2023-01-17T03:49:00.942Z,9.23
2023-01-17T03:51:27.699Z,9.70
2023-01-17T03:53:54.287Z,10.98
2023-01-17T03:56:20.947Z,11.10
2023-01-17T03:58:47.591Z,10.95
2023-01-17T04:01:14.440Z,10.85
2023-01-17T04:03:41.126Z,10.65
2023-01-17T04:06:07.867Z,10.77
2023-01-17T04:08:34.440Z,10.20
2023-01-17T04:11:01.024Z,9.90
2023-01-17T04:13:27.858Z,11.07
2023-01-17T04:15:54.619Z,10.98
2023-01-17T04:18:23.401Z,11.20
2023-01-17T04:20:50.812Z,10.43
2023-01-17T04:23:17.811Z,10.50
2023-01-17T04:25:44.487Z,10.75
2023-01-17T04:28:13.470Z,11.27
2023-01-17T04:30:40.462Z,10.75
2023-01-17T04:33:07.135Z,10.05
2023-01-17T04:35:33.730Z,10.35
2023-01-17T04:38:00.519Z,10.07
2023-01-17T04:40:27.191Z,11.98
2023-01-17T04:42:54.373Z,10.48
2023-01-17T04:45:21.543Z,14.50
2023-01-17T04:47:48.373Z,11.93
2023-01-17T04:50:15.424Z,16.75
2023-01-17T04:52:42.018Z,14.30
2023-01-17T04:55:08.751Z,13.88
2023-01-17T04:57:35.852Z,15.27
2023-01-17T05:00:02.571Z,14.50
2023-01-17T05:02:29.506Z,11.32
2023-01-17T05:04:56.106Z,10.52
2023-01-17T05:07:22.701Z,10.52
2023-01-17T05:09:49.286Z,10.30
2023-01-17T05:12:15.837Z,9.82
2023-01-17T05:14:42.465Z,10.18
2023-01-17T05:17:11.168Z,10.13
2023-01-17T05:19:37.809Z,10.68
2023-01-17T05:22:14.772Z,11.20
2023-01-17T05:24:42.820Z,10.85
2023-01-17T05:27:09.864Z,10.90
2023-01-17T05:29:36.874Z,12.27
2023-01-17T05:32:04.008Z,11.43
2023-01-17T05:34:30.755Z,11.57
2023-01-17T05:36:57.724Z,11.75
2023-01-17T05:39:24.407Z,13.70
2023-01-17T05:41:51.030Z,16.05
2023-01-17T05:44:17.666Z,15.70
2023-01-17T05:46:44.224Z,13.05
2023-01-17T05:49:10.947Z,13.10
2023-01-17T05:51:39.486Z,12.45
2023-01-17T05:54:06.701Z,12.60
2023-01-17T05:56:33.951Z,13.48
2023-01-17T05:59:00.670Z,50.28
2023-01-17T06:01:27.331Z,16.05
2023-01-17T06:03:53.917Z,13.63
2023-01-17T06:06:20.958Z,22.13
2023-01-17T06:08:47.746Z,16.95
2023-01-17T06:11:14.422Z,13.90
2023-01-17T06:13:40.983Z,12.98
2023-01-17T06:16:08.135Z,12.23
2023-01-17T06:18:34.769Z,13.13
2023-01-17T06:21:01.454Z,12.73
2023-01-17T06:23:28.397Z,12.18
2023-01-17T06:25:54.987Z,12.05
2023-01-17T06:28:22.778Z,11.70
2023-01-17T06:30:49.741Z,12.20
2023-01-17T06:33:16.690Z,12.15
2023-01-17T06:35:53.717Z,11.95
2023-01-17T06:38:21.086Z,12.82
2023-01-17T06:40:48.653Z,12.57
2023-01-17T06:43:15.772Z,12.35
2023-01-17T06:45:42.568Z,12.20
2023-01-17T06:48:09.201Z,13.80
2023-01-17T06:50:35.795Z,13.35
2023-01-17T06:53:05.051Z,15.23
2023-01-17T06:55:33.778Z,15.25
2023-01-17T06:58:02.616Z,13.38
2023-01-17T07:00:31.070Z,13.35
2023-01-17T07:02:57.840Z,13.05
2023-01-17T07:05:24.790Z,13.88
2023-01-17T07:07:51.536Z,14.90
2023-01-17T07:10:18.193Z,15.00
2023-01-17T07:12:45.042Z,14.05
2023-01-17T07:15:12.553Z,13.52
2023-01-17T07:17:39.261Z,14.05
2023-01-17T07:20:06.520Z,13.82
2023-01-17T07:22:33.154Z,13.27
2023-01-17T07:25:00.316Z,13.55
2023-01-17T07:27:30.355Z,12.98
2023-01-17T07:29:57.545Z,12.98
2023-01-17T07:32:26.497Z,15.90
2023-01-17T07:34:53.640Z,16.08
2023-01-17T07:37:20.554Z,16.58
2023-01-17T07:39:47.174Z,17.13
2023-01-17T07:42:13.888Z,17.55
2023-01-17T07:44:43.868Z,16.48
2023-01-17T07:47:11.241Z,14.93
2023-01-17T07:49:37.904Z,14.27
2023-01-17T07:52:07.589Z,14.38
2023-01-17T07:54:34.490Z,13.38
2023-01-17T07:57:01.646Z,13.40
2023-01-17T07:59:28.330Z,14.88
2023-01-17T08:01:55.192Z,16.45
2023-01-17T08:04:25.635Z,15.32
2023-01-17T08:06:52.293Z,15.85
2023-01-17T08:09:18.860Z,15.45
2023-01-17T08:11:45.463Z,15.93
2023-01-17T08:14:11.982Z,15.88
2023-01-17T08:16:40.093Z,15.30
2023-01-17T08:19:06.806Z,16.75
2023-01-17T08:21:33.438Z,15.63
2023-01-17T08:24:00.113Z,14.73
2023-01-17T08:26:27.426Z,14.05
2023-01-17T08:29:01.109Z,15.85
2023-01-17T08:31:30.686Z,15.07
2023-01-17T08:33:57.538Z,14.40
2023-01-17T08:36:28.660Z,15.77
2023-01-17T08:38:55.634Z,16.02
2023-01-17T08:41:23.705Z,16.75
2023-01-17T08:43:51.874Z,16.42
2023-01-17T08:46:19.292Z,16.27
2023-01-17T08:48:46.424Z,15.50
2023-01-17T08:51:13.236Z,14.68
2023-01-17T08:53:40.615Z,14.35
2023-01-17T08:56:07.401Z,14.75
2023-01-17T08:58:35.806Z,14.50
2023-01-17T09:01:04.510Z,14.10
2023-01-17T09:03:32.410Z,14.27
2023-01-17T09:06:13.505Z,14.45
2023-01-17T09:08:40.575Z,13.63
2023-01-17T09:11:12.363Z,14.55
2023-01-17T09:13:40.135Z,13.40
2023-01-17T09:16:07.383Z,13.43
2023-01-17T09:18:35.514Z,14.35
2023-01-17T09:21:16.845Z,14.02
2023-01-17T09:23:44.292Z,14.15
2023-01-17T09:26:23.392Z,15.00
2023-01-17T09:28:51.057Z,15.15
2023-01-17T09:31:20.737Z,14.35
2023-01-17T09:33:48.790Z,12.60
2023-01-17T09:36:15.434Z,12.45
2023-01-17T09:38:42.529Z,12.20
2023-01-17T09:41:22.824Z,13.63
2023-01-17T09:43:55.571Z,12.32
2023-01-17T09:46:37.305Z,12.88
2023-01-17T09:49:14.039Z,12.63
2023-01-17T09:51:42.428Z,12.77
2023-01-17T09:54:22.553Z,13.02
2023-01-17T09:57:15.179Z,13.10
2023-01-17T10:00:09.386Z,13.82
2023-01-17T10:02:45.572Z,13.05
2023-01-17T10:05:36.977Z,12.32
2023-01-17T10:08:21.597Z,12.27
2023-01-17T10:11:07.151Z,12.85
2023-01-17T10:13:54.528Z,13.77
2023-01-17T10:16:46.431Z,12.50
2023-01-17T10:19:25.316Z,11.70
2023-01-17T10:22:18.101Z,12.38
2023-01-17T10:25:07.639Z,11.73
2023-01-17T10:27:39.197Z,10.32
2023-01-17T10:30:22.917Z,10.50
2023-01-17T10:32:50.335Z,8.45
2023-01-17T10:35:29.084Z,7.78
2023-01-17T10:37:58.525Z,8.38
2023-01-17T10:40:34.429Z,7.80
2023-01-17T10:43:20.093Z,7.07
2023-01-17T10:45:55.334Z,6.38
2023-01-17T10:48:44.523Z,6.25
2023-01-17T10:51:43.047Z,5.18
2023-01-17T10:54:27.865Z,5.43
2023-01-17T10:56:54.703Z,5.25
2023-01-17T10:59:30.568Z,4.82
2023-01-17T11:01:58.436Z,3.92
2023-01-17T11:04:36.624Z,3.80
2023-01-17T11:07:15.107Z,3.90
2023-01-17T11:09:50.419Z,3.00
2023-01-17T11:12:28.788Z,3.42
2023-01-17T11:15:01.076Z,2.90
2023-01-17T11:17:28.642Z,2.25
2023-01-17T11:20:29.749Z,2.22
2023-01-17T11:23:21.093Z,1.90
2023-01-17T11:25:58.074Z,2.10
2023-01-17T11:28:36.014Z,1.48
2023-01-17T11:31:08.731Z,1.38
2023-01-17T11:33:46.913Z,1.33
2023-01-17T11:36:17.055Z,1.70
2023-01-17T11:38:56.345Z,1.58
2023-01-17T11:41:28.139Z,1.85
2023-01-17T11:43:59.090Z,2.13
2023-01-17T11:46:29.155Z,1.83
2023-01-17T11:49:01.513Z,1.85
2023-01-17T11:51:41.502Z,1.88
2023-01-17T11:54:38.857Z,1.30
2023-01-17T11:57:09.138Z,1.02
2023-01-17T11:59:38.137Z,1.00
2023-01-17T12:02:24.018Z,1.10
2023-01-17T12:05:21.639Z,0.90
2023-01-17T12:08:06.834Z,0.80
2023-01-17T12:11:00.174Z,0.98
2023-01-17T12:14:00.848Z,1.00
2023-01-17T12:16:45.853Z,1.10
2023-01-17T12:19:32.644Z,0.90
2023-01-17T12:22:02.489Z,0.70
2023-01-17T12:24:41.898Z,0.90
2023-01-17T12:27:39.442Z,1.00
2023-01-17T12:30:18.176Z,0.75
2023-01-17T12:33:05.061Z,0.60
2023-01-17T12:35:50.801Z,0.77
2023-01-17T12:38:32.134Z,0.70
2023-01-17T12:41:12.776Z,0.90
2023-01-17T12:43:44.427Z,1.00
2023-01-17T12:46:21.009Z,1.00
2023-01-17T12:48:58.386Z,1.13
2023-01-17T12:51:29.602Z,1.10
2023-01-17T12:54:13.072Z,1.08
2023-01-17T12:56:48.545Z,1.13
2023-01-17T12:59:27.894Z,1.50
2023-01-17T13:01:59.196Z,1.30
2023-01-17T13:04:25.880Z,1.40
2023-01-17T13:06:58.547Z,1.20
2023-01-17T13:09:29.125Z,1.30
2023-01-17T13:12:01.587Z,1.38
2023-01-17T13:17:14.319Z,1.20
2023-01-17T13:20:01.886Z,1.27
2023-01-17T13:22:30.084Z,1.13
2023-01-17T13:25:07.994Z,1.50
2023-01-17T13:27:43.486Z,2.00
2023-01-17T13:30:50.686Z,1.48
2023-01-17T13:33:34.930Z,1.50
2023-01-17T13:36:29.820Z,1.52
2023-01-17T13:39:15.160Z,1.75
2023-01-17T13:41:52.696Z,1.52
2023-01-17T13:44:28.222Z,1.52
2023-01-17T13:46:57.608Z,1.45
2023-01-17T13:49:26.759Z,1.50
2023-01-17T13:52:12.188Z,1.42
2023-01-17T13:54:47.748Z,1.58
2023-01-17T13:57:23.180Z,1.67
2023-01-17T13:59:50.179Z,1.67
2023-01-17T14:02:32.111Z,1.70
2023-01-17T14:05:16.207Z,1.90
2023-01-17T14:07:42.691Z,1.50
2023-01-17T14:10:41.571Z,1.65
2023-01-17T14:13:43.393Z,1.90
2023-01-17T14:16:22.177Z,2.00
2023-01-17T14:18:49.598Z,2.25
2023-01-17T14:21:23.644Z,2.53
2023-01-17T14:24:16.459Z,2.72
2023-01-17T14:29:46.035Z,2.67
2023-01-17T14:32:35.246Z,3.13
2023-01-17T14:35:03.056Z,3.10
2023-01-17T14:37:32.570Z,3.60
2023-01-17T14:40:00.748Z,3.10
2023-01-17T14:42:30.496Z,3.20
2023-01-17T14:45:08.888Z,3.35
2023-01-17T14:47:39.347Z,3.30
2023-01-17T14:50:17.879Z,3.60
2023-01-17T14:52:47.217Z,3.80
2023-01-17T14:55:17.321Z,3.60
2023-01-17T14:57:54.647Z,4.18
2023-01-17T15:00:23.331Z,3.63
2023-01-17T15:02:50.805Z,4.22
2023-01-17T15:05:20.874Z,4.65
2023-01-17T15:07:53.660Z,4.78
2023-01-17T15:10:25.118Z,4.93
2023-01-17T15:12:52.639Z,4.97
2023-01-17T15:15:32.154Z,4.80
2023-01-17T15:18:29.934Z,5.00
2023-01-17T15:21:05.925Z,4.25
2023-01-17T15:23:38.346Z,4.22
2023-01-17T15:26:11.107Z,4.10
2023-01-17T15:28:38.014Z,3.88
2023-01-17T15:31:09.496Z,4.50
2023-01-17T15:33:39.267Z,4.10
2023-01-17T15:36:17.503Z,4.70
2023-01-17T15:38:52.177Z,5.80
2023-01-17T15:41:22.582Z,6.43
2023-01-17T15:43:49.233Z,4.57
2023-01-17T15:46:25.682Z,4.38
2023-01-17T15:48:52.361Z,4.75
2023-01-17T15:51:39.266Z,4.97
2023-01-17T15:54:24.726Z,5.53
2023-01-17T15:57:18.078Z,6.00
2023-01-17T16:00:09.618Z,6.30
2023-01-17T16:02:42.899Z,5.50
2023-01-17T16:05:24.760Z,5.40
2023-01-17T16:07:56.532Z,4.83
2023-01-17T16:10:28.865Z,5.57
2023-01-17T16:12:56.249Z,5.15
2023-01-17T16:15:23.624Z,5.82
2023-01-17T16:17:53.753Z,4.97
2023-01-17T16:20:29.532Z,4.72
2023-01-17T16:22:56.494Z,4.20
2023-01-17T16:25:24.395Z,4.18
2023-01-17T16:27:52.284Z,4.85
2023-01-17T16:30:21.621Z,4.57
2023-01-17T16:32:49.324Z,4.63
2023-01-17T16:35:19.077Z,4.10
2023-01-17T16:37:49.628Z,4.20
2023-01-17T16:40:17.201Z,4.90
2023-01-17T16:42:44.675Z,4.68
2023-01-17T16:45:12.427Z,5.40
2023-01-17T16:47:46.752Z,5.85
2023-01-17T16:50:17.662Z,7.07
2023-01-17T16:52:44.293Z,7.20
2023-01-17T16:55:13.923Z,7.00
2023-01-17T16:57:40.807Z,7.47
2023-01-17T17:00:10.040Z,7.60
2023-01-17T17:02:38.508Z,6.93
2023-01-17T17:05:07.361Z,6.95
2023-01-17T17:07:36.708Z,6.93
2023-01-17T17:10:03.552Z,6.97
2023-01-17T17:12:30.183Z,6.50
2023-01-17T17:14:56.727Z,7.18
2023-01-17T17:17:23.919Z,7.03
2023-01-17T17:19:50.483Z,7.60
2023-01-17T17:22:17.071Z,7.40
2023-01-17T17:24:43.659Z,7.95
2023-01-17T17:27:10.282Z,7.63
2023-01-17T17:29:36.863Z,8.52
2023-01-17T17:32:03.594Z,8.43
2023-01-17T17:34:31.880Z,8.90
2023-01-17T17:36:58.472Z,9.32
2023-01-17T17:39:25.046Z,9.00
2023-01-17T17:41:51.690Z,10.07
2023-01-17T17:44:18.350Z,9.35
2023-01-17T17:46:49.115Z,9.50
2023-01-17T17:49:18.522Z,7.97
2023-01-17T17:51:45.105Z,8.93
2023-01-17T17:54:13.556Z,8.23
2023-01-17T17:56:42.259Z,8.23
2023-01-17T17:59:09.767Z,7.85
2023-01-17T18:01:40.933Z,5.82
2023-01-17T18:04:08.403Z,3.80
2023-01-17T18:06:36.018Z,3.90
2023-01-17T18:09:03.524Z,3.35
2023-01-17T18:11:30.823Z,3.15
2023-01-17T18:14:00.643Z,3.70
2023-01-17T18:16:35.572Z,4.00
2023-01-17T18:19:03.397Z,3.90
2023-01-17T18:21:33.688Z,3.60
2023-01-17T18:24:02.646Z,3.10
2023-01-17T18:26:38.019Z,3.40
2023-01-17T18:29:07.035Z,4.45
2023-01-17T18:31:34.052Z,4.05
2023-01-17T18:34:05.325Z,4.30
2023-01-17T18:36:34.382Z,3.28
2023-01-17T18:39:01.887Z,3.20
2023-01-17T18:41:30.831Z,3.38
2023-01-17T18:43:58.181Z,3.95
2023-01-17T18:46:26.193Z,4.60
2023-01-17T18:48:55.898Z,5.82
2023-01-17T18:51:22.804Z,7.10
2023-01-17T18:53:49.517Z,7.40
2023-01-17T18:56:18.936Z,8.07
2023-01-17T18:58:47.342Z,8.10
2023-01-17T19:01:43.580Z,8.70
2023-01-17T19:04:12.111Z,8.98
2023-01-17T19:06:41.440Z,9.88
2023-01-17T19:09:09.299Z,9.90
2023-01-17T19:11:39.358Z,10.45
2023-01-17T19:14:06.836Z,11.10
2023-01-17T19:16:36.353Z,11.10
2023-01-17T19:19:06.319Z,10.30
2023-01-17T19:21:33.287Z,12.02
2023-01-17T19:24:00.028Z,10.65
2023-01-17T19:26:27.796Z,11.13
2023-01-17T19:28:56.678Z,10.82
2023-01-17T19:31:26.231Z,10.50
2023-01-17T19:33:56.880Z,10.23
2023-01-17T19:36:26.322Z,10.55
2023-01-17T19:39:03.851Z,9.57
2023-01-17T19:41:32.965Z,9.95
2023-01-17T19:44:02.290Z,9.02
2023-01-17T19:46:29.188Z,7.93
2023-01-17T19:48:57.483Z,7.45
2023-01-17T19:51:24.755Z,7.97
2023-01-17T19:53:51.421Z,8.80
2023-01-17T19:56:20.841Z,8.70
2023-01-17T19:58:48.137Z,10.30
2023-01-17T20:01:28.591Z,9.55
2023-01-17T20:03:57.906Z,9.98
2023-01-17T20:06:28.655Z,9.07
2023-01-17T20:08:55.692Z,9.00
2023-01-17T20:11:23.971Z,8.30
2023-01-17T20:13:58.840Z,8.50
2023-01-17T20:16:27.896Z,9.07
2023-01-17T20:18:54.575Z,9.57
2023-01-17T20:21:24.105Z,8.68
2023-01-17T20:23:51.723Z,8.73
2023-01-17T20:26:20.969Z,8.93
2023-01-17T20:28:51.298Z,8.00
2023-01-17T20:31:20.698Z,8.95
2023-01-17T20:33:50.305Z,8.55
2023-01-17T20:36:18.860Z,8.63
2023-01-17T20:38:46.381Z,8.88
2023-01-17T20:41:18.446Z,9.10
2023-01-17T20:43:47.599Z,9.20
2023-01-17T20:46:14.618Z,9.55
2023-01-17T20:49:01.181Z,7.93
2023-01-17T20:51:29.477Z,6.95
2023-01-17T20:54:00.759Z,5.68
2023-01-17T20:56:29.949Z,5.32
2023-01-17T20:58:57.872Z,4.80
2023-01-17T21:01:24.511Z,4.78
2023-01-17T21:03:53.919Z,4.60
2023-01-17T21:06:22.489Z,4.97
2023-01-17T21:08:49.330Z,5.20
2023-01-17T21:11:19.571Z,4.53
2023-01-17T21:13:48.602Z,5.20
2023-01-17T21:16:20.338Z,4.85
2023-01-17T21:18:48.615Z,4.90
2023-01-17T21:21:17.949Z,5.78
2023-01-17T21:23:45.569Z,5.18
2023-01-17T21:26:14.553Z,5.25
2023-01-17T21:28:43.543Z,5.22
2023-01-17T21:31:33.490Z,5.43
2023-01-17T21:34:02.965Z,5.30
2023-01-17T21:36:33.071Z,5.45
2023-01-17T21:39:04.539Z,5.20
2023-01-17T21:41:34.352Z,5.00
2023-01-17T21:44:03.531Z,5.50
2023-01-17T21:46:30.367Z,5.00
2023-01-17T21:48:57.677Z,4.72
2023-01-17T21:51:24.756Z,4.95
2023-01-17T21:53:51.365Z,5.30
2023-01-17T21:56:36.554Z,4.43
2023-01-17T21:59:03.218Z,3.92
2023-01-17T22:01:32.553Z,3.65
2023-01-17T22:04:02.702Z,3.30
2023-01-17T22:06:39.303Z,3.55
2023-01-17T22:09:07.230Z,3.13
2023-01-17T22:11:36.419Z,3.30
2023-01-17T22:14:06.587Z,2.90
2023-01-17T22:16:33.216Z,2.67
2023-01-17T22:18:59.996Z,2.60
2023-01-17T22:21:28.486Z,2.88
2023-01-17T22:23:57.445Z,2.55
2023-01-17T22:26:29.748Z,2.55
2023-01-17T22:28:59.768Z,2.10
2023-01-17T22:31:28.076Z,2.20
2023-01-17T22:34:00.619Z,2.20
2023-01-17T22:36:27.996Z,2.15
2023-01-17T22:38:54.932Z,2.17
2023-01-17T22:41:29.742Z,2.30
2023-01-17T22:43:58.726Z,2.10
2023-01-17T22:46:28.540Z,2.10
2023-01-17T22:48:55.813Z,2.05
2023-01-17T22:51:25.999Z,1.80
2023-01-17T22:53:55.435Z,1.88
2023-01-17T22:56:24.062Z,1.60
2023-01-17T22:58:50.938Z,1.80
2023-01-17T23:01:26.925Z,1.80
2023-01-17T23:03:56.377Z,1.85
2023-01-17T23:06:28.387Z,1.90
2023-01-17T23:08:56.742Z,2.03
2023-01-17T23:11:41.161Z,1.95
2023-01-17T23:14:13.846Z,2.30
2023-01-17T23:17:04.797Z,2.25
2023-01-17T23:19:35.262Z,2.30
2023-01-17T23:22:18.023Z,2.50
2023-01-17T23:24:59.234Z,2.55
2023-01-17T23:27:59.292Z,2.47
2023-01-17T23:30:34.758Z,2.30
2023-01-17T23:33:07.717Z,2.58
2023-01-17T23:35:41.456Z,2.95
2023-01-17T23:38:33.744Z,3.03
2023-01-17T23:41:21.632Z,2.72
2023-01-17T23:43:52.718Z,2.97
2023-01-17T23:46:19.818Z,3.17
2023-01-17T23:48:46.950Z,3.17
2023-01-17T23:51:13.557Z,3.55
2023-01-17T23:53:40.666Z,3.35
2023-01-17T23:56:15.113Z,3.72
2023-01-17T23:58:41.814Z,4.05
